sensor_id;sensor_type;location;lat;lon;timestamp;P1;durP1;ratioP1;P2;durP2;ratioP2
3083;SDS011;1552;51.952;7.618;2024-01-15T00:01:45;10.67;;;6.43;;
3083;SDS011;1552;51.952;7.618;2024-01-15T00:04:11;12.47;;;6.93;;
3083;SDS011;1552;51.952;7.618;2024-01-15T00:06:38;11.53;;;6.80;;
3083;SDS011;1552;51.952;7.618;2024-01-15T00:09:04;12.50;;;6.70;;
3083;SDS011;1552;51.952;7.618;2024-01-15T00:11:31;12.27;;;7.37;;
3083;SDS011;1552;51.952;7.618;2024-01-15T00:13:58;9.30;;;6.33;;
3083;SDS011;1552;51.952;7.618;2024-01-15T00:16:24;13.13;;;6.20;;
3083;SDS011;1552;51.952;7.618;2024-01-15T00:18:52;14.63;;;6.77;;
3083;SDS011;1552;51.952;7.618;2024-01-15T00:21:18;12.17;;;6.60;;
3083;SDS011;1552;51.952;7.618;2024-01-15T00:23:44;16.23;;;6.97;;
3083;SDS011;1552;51.952;7.618;2024-01-15T00:26:11;11.57;;;6.53;;
3083;SDS011;1552;51.952;7.618;2024-01-15T00:28:37;14.03;;;7.43;;
3083;SDS011;1552;51.952;7.618;2024-01-15T00:31:03;12.87;;;6.70;;
3083;SDS011;1552;51.952;7.618;2024-01-15T00:33:30;13.83;;;6.80;;
3083;SDS011;1552;51.952;7.618;2024-01-15T00:35:57;10.10;;;6.27;;
3083;SDS011;1552;51.952;7.618;2024-01-15T00:38:23;11.50;;;5.40;;
3083;SDS011;1552;51.952;7.618;2024-01-15T00:40:50;13.60;;;5.97;;
3083;SDS011;1552;51.952;7.618;2024-01-15T00:43:16;11.33;;;5.57;;
3083;SDS011;1552;51.952;7.618;2024-01-15T00:45:44;9.73;;;5.20;;
3083;SDS011;1552;51.952;7.618;2024-01-15T00:48:10;12.53;;;6.30;;
3083;SDS011;1552;51.952;7.618;2024-01-15T00:50:36;13.03;;;6.77;;
3083;SDS011;1552;51.952;7.618;2024-01-15T00:53:04;12.70;;;6.23;;
3083;SDS011;1552;51.952;7.618;2024-01-15T00:55:30;16.40;;;7.40;;
3083;SDS011;1552;51.952;7.618;2024-01-15T00:57:56;12.37;;;6.80;;
3083;SDS011;1552;51.952;7.618;2024-01-15T01:00:23;15.07;;;6.33;;
3083;SDS011;1552;51.952;7.618;2024-01-15T01:02:49;10.27;;;6.43;;
3083;SDS011;1552;51.952;7.618;2024-01-15T01:05:15;15.13;;;7.17;;
3083;SDS011;1552;51.952;7.618;2024-01-15T01:07:41;18.93;;;7.03;;
3083;SDS011;1552;51.952;7.618;2024-01-15T01:10:09;15.43;;;7.03;;
3083;SDS011;1552;51.952;7.618;2024-01-15T01:12:35;14.90;;;7.33;;
3083;SDS011;1552;51.952;7.618;2024-01-15T01:15:02;12.33;;;6.63;;
3083;SDS011;1552;51.952;7.618;2024-01-15T01:17:28;11.73;;;7.13;;
3083;SDS011;1552;51.952;7.618;2024-01-15T01:19:55;17.33;;;7.93;;
3083;SDS011;1552;51.952;7.618;2024-01-15T01:22:22;14.33;;;6.43;;
3083;SDS011;1552;51.952;7.618;2024-01-15T01:24:48;14.47;;;7.90;;
3083;SDS011;1552;51.952;7.618;2024-01-15T01:27:15;12.37;;;6.33;;
3083;SDS011;1552;51.952;7.618;2024-01-15T01:29:42;12.70;;;7.27;;
3083;SDS011;1552;51.952;7.618;2024-01-15T01:32:08;13.50;;;7.20;;
3083;SDS011;1552;51.952;7.618;2024-01-15T01:34:39;16.60;;;7.87;;
3083;SDS011;1552;51.952;7.618;2024-01-15T01:37:06;18.30;;;7.17;;
3083;SDS011;1552;51.952;7.618;2024-01-15T01:39:32;15.00;;;6.97;;
3083;SDS011;1552;51.952;7.618;2024-01-15T01:41:58;13.77;;;7.27;;
3083;SDS011;1552;51.952;7.618;2024-01-15T01:44:26;21.43;;;7.73;;
3083;SDS011;1552;51.952;7.618;2024-01-15T01:46:52;13.13;;;7.20;;
3083;SDS011;1552;51.952;7.618;2024-01-15T01:49:19;17.63;;;7.50;;
3083;SDS011;1552;51.952;7.618;2024-01-15T01:51:45;11.80;;;6.70;;
3083;SDS011;1552;51.952;7.618;2024-01-15T01:54:12;12.93;;;6.63;;
3083;SDS011;1552;51.952;7.618;2024-01-15T01:56:39;20.80;;;6.73;;
3083;SDS011;1552;51.952;7.618;2024-01-15T01:59:05;11.57;;;6.47;;
3083;SDS011;1552;51.952;7.618;2024-01-15T02:01:33;18.43;;;7.00;;
3083;SDS011;1552;51.952;7.618;2024-01-15T02:03:59;17.93;;;7.47;;
3083;SDS011;1552;51.952;7.618;2024-01-15T02:06:26;20.13;;;7.03;;
3083;SDS011;1552;51.952;7.618;2024-01-15T02:08:52;14.50;;;7.20;;
3083;SDS011;1552;51.952;7.618;2024-01-15T02:11:19;19.20;;;7.87;;
3083;SDS011;1552;51.952;7.618;2024-01-15T02:13:45;16.97;;;7.60;;
3083;SDS011;1552;51.952;7.618;2024-01-15T02:16:12;20.97;;;7.13;;
3083;SDS011;1552;51.952;7.618;2024-01-15T02:18:43;16.30;;;8.30;;
3083;SDS011;1552;51.952;7.618;2024-01-15T02:21:09;15.97;;;6.60;;
3083;SDS011;1552;51.952;7.618;2024-01-15T02:23:37;13.93;;;6.77;;
3083;SDS011;1552;51.952;7.618;2024-01-15T02:26:04;11.60;;;6.70;;
3083;SDS011;1552;51.952;7.618;2024-01-15T02:28:30;15.20;;;6.70;;
3083;SDS011;1552;51.952;7.618;2024-01-15T02:30:56;22.97;;;6.70;;
3083;SDS011;1552;51.952;7.618;2024-01-15T02:33:23;13.53;;;5.73;;
3083;SDS011;1552;51.952;7.618;2024-01-15T02:35:49;13.80;;;5.63;;
3083;SDS011;1552;51.952;7.618;2024-01-15T02:38:16;14.50;;;5.90;;
3083;SDS011;1552;51.952;7.618;2024-01-15T02:40:44;14.60;;;6.37;;
3083;SDS011;1552;51.952;7.618;2024-01-15T02:43:10;17.73;;;6.73;;
3083;SDS011;1552;51.952;7.618;2024-01-15T02:45:37;17.20;;;7.33;;
3083;SDS011;1552;51.952;7.618;2024-01-15T02:48:03;12.37;;;6.43;;
3083;SDS011;1552;51.952;7.618;2024-01-15T02:50:29;15.83;;;6.53;;
3083;SDS011;1552;51.952;7.618;2024-01-15T02:52:56;19.07;;;7.90;;
3083;SDS011;1552;51.952;7.618;2024-01-15T02:55:22;17.90;;;7.60;;
3083;SDS011;1552;51.952;7.618;2024-01-15T02:57:49;14.37;;;6.20;;
3083;SDS011;1552;51.952;7.618;2024-01-15T03:00:16;20.70;;;6.43;;
3083;SDS011;1552;51.952;7.618;2024-01-15T03:02:44;13.83;;;6.23;;
3083;SDS011;1552;51.952;7.618;2024-01-15T03:05:10;13.83;;;6.27;;
3083;SDS011;1552;51.952;7.618;2024-01-15T03:07:36;19.63;;;6.97;;
3083;SDS011;1552;51.952;7.618;2024-01-15T03:10:04;14.50;;;6.23;;
3083;SDS011;1552;51.952;7.618;2024-01-15T03:12:30;16.93;;;6.57;;
3083;SDS011;1552;51.952;7.618;2024-01-15T03:14:58;17.60;;;6.93;;
3083;SDS011;1552;51.952;7.618;2024-01-15T03:17:24;17.03;;;6.53;;
3083;SDS011;1552;51.952;7.618;2024-01-15T03:19:50;16.83;;;7.17;;
3083;SDS011;1552;51.952;7.618;2024-01-15T03:22:17;9.40;;;5.70;;
3083;SDS011;1552;51.952;7.618;2024-01-15T03:24:43;22.70;;;6.90;;
3083;SDS011;1552;51.952;7.618;2024-01-15T03:27:10;12.20;;;6.60;;
3083;SDS011;1552;51.952;7.618;2024-01-15T03:29:36;18.73;;;6.47;;
3083;SDS011;1552;51.952;7.618;2024-01-15T03:32:04;18.77;;;6.77;;
3083;SDS011;1552;51.952;7.618;2024-01-15T03:34:30;12.80;;;5.83;;
3083;SDS011;1552;51.952;7.618;2024-01-15T03:36:56;10.40;;;6.37;;
3083;SDS011;1552;51.952;7.618;2024-01-15T03:39:23;13.23;;;5.93;;
3083;SDS011;1552;51.952;7.618;2024-01-15T03:41:50;13.17;;;6.37;;
3083;SDS011;1552;51.952;7.618;2024-01-15T03:44:16;14.80;;;6.17;;
3083;SDS011;1552;51.952;7.618;2024-01-15T03:46:42;10.23;;;6.13;;
3083;SDS011;1552;51.952;7.618;2024-01-15T03:49:10;12.37;;;5.83;;
3083;SDS011;1552;51.952;7.618;2024-01-15T03:51:37;11.97;;;5.67;;
3083;SDS011;1552;51.952;7.618;2024-01-15T03:54:03;9.57;;;4.60;;
3083;SDS011;1552;51.952;7.618;2024-01-15T03:56:29;10.07;;;5.47;;
3083;SDS011;1552;51.952;7.618;2024-01-15T03:58:55;13.87;;;5.70;;
3083;SDS011;1552;51.952;7.618;2024-01-15T04:01:22;10.97;;;4.87;;
3083;SDS011;1552;51.952;7.618;2024-01-15T04:03:48;15.97;;;4.87;;
3083;SDS011;1552;51.952;7.618;2024-01-15T04:06:15;14.00;;;4.90;;
3083;SDS011;1552;51.952;7.618;2024-01-15T04:08:42;11.80;;;5.33;;
3083;SDS011;1552;51.952;7.618;2024-01-15T04:11:08;10.43;;;5.07;;
3083;SDS011;1552;51.952;7.618;2024-01-15T04:13:34;7.00;;;4.23;;
3083;SDS011;1552;51.952;7.618;2024-01-15T04:16:00;12.83;;;4.63;;
3083;SDS011;1552;51.952;7.618;2024-01-15T04:18:27;14.40;;;5.13;;
3083;SDS011;1552;51.952;7.618;2024-01-15T04:20:53;18.10;;;5.07;;
3083;SDS011;1552;51.952;7.618;2024-01-15T04:23:21;7.10;;;4.50;;
3083;SDS011;1552;51.952;7.618;2024-01-15T04:25:47;8.87;;;5.07;;
3083;SDS011;1552;51.952;7.618;2024-01-15T04:28:13;7.60;;;4.27;;
3083;SDS011;1552;51.952;7.618;2024-01-15T04:30:40;10.27;;;5.00;;
3083;SDS011;1552;51.952;7.618;2024-01-15T04:33:06;11.97;;;4.53;;
3083;SDS011;1552;51.952;7.618;2024-01-15T04:35:32;10.77;;;4.93;;
3083;SDS011;1552;51.952;7.618;2024-01-15T04:37:59;6.90;;;4.43;;
3083;SDS011;1552;51.952;7.618;2024-01-15T04:40:26;9.77;;;4.90;;
3083;SDS011;1552;51.952;7.618;2024-01-15T04:42:53;8.63;;;4.43;;
3083;SDS011;1552;51.952;7.618;2024-01-15T04:45:19;9.27;;;4.60;;
3083;SDS011;1552;51.952;7.618;2024-01-15T04:47:47;13.30;;;4.60;;
3083;SDS011;1552;51.952;7.618;2024-01-15T04:50:14;12.90;;;4.73;;
3083;SDS011;1552;51.952;7.618;2024-01-15T04:52:40;9.33;;;5.57;;
3083;SDS011;1552;51.952;7.618;2024-01-15T04:55:05;10.70;;;4.63;;
3083;SDS011;1552;51.952;7.618;2024-01-15T04:57:33;13.93;;;5.13;;
3083;SDS011;1552;51.952;7.618;2024-01-15T04:59:59;9.90;;;4.77;;
3083;SDS011;1552;51.952;7.618;2024-01-15T05:02:25;16.30;;;5.30;;
3083;SDS011;1552;51.952;7.618;2024-01-15T05:04:52;9.73;;;4.57;;
3083;SDS011;1552;51.952;7.618;2024-01-15T05:07:18;10.03;;;4.87;;
3083;SDS011;1552;51.952;7.618;2024-01-15T05:09:44;11.90;;;4.63;;
3083;SDS011;1552;51.952;7.618;2024-01-15T05:12:10;11.23;;;4.67;;
3083;SDS011;1552;51.952;7.618;2024-01-15T05:14:38;9.17;;;5.37;;
3083;SDS011;1552;51.952;7.618;2024-01-15T05:17:05;6.37;;;4.23;;
3083;SDS011;1552;51.952;7.618;2024-01-15T05:19:31;8.43;;;4.37;;
3083;SDS011;1552;51.952;7.618;2024-01-15T05:21:57;12.07;;;4.77;;
3083;SDS011;1552;51.952;7.618;2024-01-15T05:24:23;10.67;;;4.27;;
3083;SDS011;1552;51.952;7.618;2024-01-15T05:26:51;7.43;;;3.93;;
3083;SDS011;1552;51.952;7.618;2024-01-15T05:29:17;11.60;;;5.07;;
3083;SDS011;1552;51.952;7.618;2024-01-15T05:31:45;11.20;;;4.20;;
3083;SDS011;1552;51.952;7.618;2024-01-15T05:34:11;11.63;;;3.73;;
3083;SDS011;1552;51.952;7.618;2024-01-15T05:36:37;7.33;;;3.83;;
3083;SDS011;1552;51.952;7.618;2024-01-15T05:39:04;9.23;;;3.83;;
3083;SDS011;1552;51.952;7.618;2024-01-15T05:41:30;11.50;;;4.60;;
3083;SDS011;1552;51.952;7.618;2024-01-15T05:43:56;9.77;;;3.30;;
3083;SDS011;1552;51.952;7.618;2024-01-15T05:46:23;19.07;;;4.37;;
3083;SDS011;1552;51.952;7.618;2024-01-15T05:48:50;13.13;;;4.13;;
3083;SDS011;1552;51.952;7.618;2024-01-15T05:51:16;7.73;;;3.70;;
3083;SDS011;1552;51.952;7.618;2024-01-15T05:53:43;9.37;;;4.73;;
3083;SDS011;1552;51.952;7.618;2024-01-15T05:56:09;7.30;;;3.93;;
3083;SDS011;1552;51.952;7.618;2024-01-15T05:58:36;6.43;;;3.90;;
3083;SDS011;1552;51.952;7.618;2024-01-15T06:01:02;10.27;;;4.87;;
3083;SDS011;1552;51.952;7.618;2024-01-15T06:03:29;7.00;;;3.67;;
3083;SDS011;1552;51.952;7.618;2024-01-15T06:05:56;8.87;;;3.80;;
3083;SDS011;1552;51.952;7.618;2024-01-15T06:08:22;6.77;;;3.40;;
3083;SDS011;1552;51.952;7.618;2024-01-15T06:10:49;11.23;;;4.13;;
3083;SDS011;1552;51.952;7.618;2024-01-15T06:13:15;11.90;;;3.90;;
3083;SDS011;1552;51.952;7.618;2024-01-15T06:15:41;8.33;;;3.43;;
3083;SDS011;1552;51.952;7.618;2024-01-15T06:18:08;6.50;;;3.90;;
3083;SDS011;1552;51.952;7.618;2024-01-15T06:20:34;9.67;;;3.83;;
3083;SDS011;1552;51.952;7.618;2024-01-15T06:23:02;6.77;;;3.40;;
3083;SDS011;1552;51.952;7.618;2024-01-15T06:25:28;12.93;;;4.00;;
3083;SDS011;1552;51.952;7.618;2024-01-15T06:27:55;9.10;;;3.77;;
3083;SDS011;1552;51.952;7.618;2024-01-15T06:30:21;6.97;;;3.47;;
3083;SDS011;1552;51.952;7.618;2024-01-15T06:32:47;8.53;;;3.07;;
3083;SDS011;1552;51.952;7.618;2024-01-15T06:35:14;10.60;;;3.53;;
3083;SDS011;1552;51.952;7.618;2024-01-15T06:37:40;15.93;;;4.50;;
3083;SDS011;1552;51.952;7.618;2024-01-15T06:40:08;10.37;;;3.60;;
3083;SDS011;1552;51.952;7.618;2024-01-15T06:42:35;8.03;;;3.13;;
3083;SDS011;1552;51.952;7.618;2024-01-15T06:45:01;11.87;;;3.43;;
3083;SDS011;1552;51.952;7.618;2024-01-15T06:47:27;6.60;;;3.70;;
3083;SDS011;1552;51.952;7.618;2024-01-15T06:49:53;5.73;;;3.23;;
3083;SDS011;1552;51.952;7.618;2024-01-15T06:52:20;8.00;;;3.63;;
3083;SDS011;1552;51.952;7.618;2024-01-15T06:54:46;7.93;;;3.50;;
3083;SDS011;1552;51.952;7.618;2024-01-15T06:57:14;3.97;;;2.90;;
3083;SDS011;1552;51.952;7.618;2024-01-15T06:59:40;17.47;;;3.50;;
3083;SDS011;1552;51.952;7.618;2024-01-15T07:02:06;6.87;;;3.10;;
3083;SDS011;1552;51.952;7.618;2024-01-15T07:04:33;7.23;;;3.50;;
3083;SDS011;1552;51.952;7.618;2024-01-15T07:06:59;6.13;;;3.43;;
3083;SDS011;1552;51.952;7.618;2024-01-15T07:09:25;9.73;;;3.27;;
3083;SDS011;1552;51.952;7.618;2024-01-15T07:11:51;6.37;;;3.10;;
3083;SDS011;1552;51.952;7.618;2024-01-15T07:14:19;5.23;;;3.40;;
3083;SDS011;1552;51.952;7.618;2024-01-15T07:16:45;4.70;;;3.03;;
3083;SDS011;1552;51.952;7.618;2024-01-15T07:19:12;4.43;;;3.10;;
3083;SDS011;1552;51.952;7.618;2024-01-15T07:21:38;11.13;;;3.17;;
3083;SDS011;1552;51.952;7.618;2024-01-15T07:24:05;4.07;;;3.33;;
3083;SDS011;1552;51.952;7.618;2024-01-15T07:26:31;5.03;;;3.20;;
3083;SDS011;1552;51.952;7.618;2024-01-15T07:28:57;5.47;;;2.87;;
3083;SDS011;1552;51.952;7.618;2024-01-15T07:31:25;4.67;;;2.60;;
3083;SDS011;1552;51.952;7.618;2024-01-15T07:33:51;4.77;;;3.00;;
3083;SDS011;1552;51.952;7.618;2024-01-15T07:36:17;3.67;;;2.27;;
3083;SDS011;1552;51.952;7.618;2024-01-15T07:38:44;6.40;;;2.73;;
3083;SDS011;1552;51.952;7.618;2024-01-15T07:41:10;8.23;;;4.00;;
3083;SDS011;1552;51.952;7.618;2024-01-15T07:43:36;5.30;;;3.10;;
3083;SDS011;1552;51.952;7.618;2024-01-15T07:46:03;10.83;;;3.43;;
3083;SDS011;1552;51.952;7.618;2024-01-15T07:48:31;13.53;;;4.00;;
3083;SDS011;1552;51.952;7.618;2024-01-15T07:50:57;6.50;;;3.70;;
3083;SDS011;1552;51.952;7.618;2024-01-15T07:53:24;10.27;;;4.37;;
3083;SDS011;1552;51.952;7.618;2024-01-15T07:55:50;7.13;;;3.80;;
3083;SDS011;1552;51.952;7.618;2024-01-15T07:58:16;7.57;;;3.30;;
3083;SDS011;1552;51.952;7.618;2024-01-15T08:00:43;6.37;;;3.87;;
3083;SDS011;1552;51.952;7.618;2024-01-15T08:03:09;8.50;;;4.00;;
3083;SDS011;1552;51.952;7.618;2024-01-15T08:05:37;8.90;;;3.93;;
3083;SDS011;1552;51.952;7.618;2024-01-15T08:08:03;6.80;;;3.97;;
3083;SDS011;1552;51.952;7.618;2024-01-15T08:10:30;8.60;;;4.10;;
3083;SDS011;1552;51.952;7.618;2024-01-15T08:12:56;7.70;;;3.77;;
3083;SDS011;1552;51.952;7.618;2024-01-15T08:15:22;13.17;;;4.53;;
3083;SDS011;1552;51.952;7.618;2024-01-15T08:17:48;14.97;;;4.50;;
3083;SDS011;1552;51.952;7.618;2024-01-15T08:20:15;19.63;;;4.27;;
3083;SDS011;1552;51.952;7.618;2024-01-15T08:22:43;6.77;;;3.70;;
3083;SDS011;1552;51.952;7.618;2024-01-15T08:25:09;11.37;;;4.40;;
3083;SDS011;1552;51.952;7.618;2024-01-15T08:27:36;5.60;;;3.10;;
3083;SDS011;1552;51.952;7.618;2024-01-15T08:30:02;7.70;;;3.50;;
3083;SDS011;1552;51.952;7.618;2024-01-15T08:32:29;8.73;;;4.63;;
3083;SDS011;1552;51.952;7.618;2024-01-15T08:34:55;12.63;;;4.23;;
3083;SDS011;1552;51.952;7.618;2024-01-15T08:37:21;6.43;;;3.30;;
3083;SDS011;1552;51.952;7.618;2024-01-15T08:39:49;11.37;;;3.67;;
3083;SDS011;1552;51.952;7.618;2024-01-15T08:42:16;4.90;;;3.30;;
3083;SDS011;1552;51.952;7.618;2024-01-15T08:44:43;7.73;;;3.70;;
3083;SDS011;1552;51.952;7.618;2024-01-15T08:47:09;4.73;;;3.47;;
3083;SDS011;1552;51.952;7.618;2024-01-15T08:49:35;6.17;;;2.90;;
3083;SDS011;1552;51.952;7.618;2024-01-15T08:52:02;5.97;;;3.43;;
3083;SDS011;1552;51.952;7.618;2024-01-15T08:54:28;5.07;;;3.73;;
3083;SDS011;1552;51.952;7.618;2024-01-15T08:56:56;4.13;;;3.10;;
3083;SDS011;1552;51.952;7.618;2024-01-15T08:59:22;6.10;;;3.40;;
3083;SDS011;1552;51.952;7.618;2024-01-15T09:01:50;5.83;;;3.33;;
3083;SDS011;1552;51.952;7.618;2024-01-15T09:04:17;5.50;;;3.30;;
3083;SDS011;1552;51.952;7.618;2024-01-15T09:06:44;6.43;;;4.07;;
3083;SDS011;1552;51.952;7.618;2024-01-15T09:09:10;5.87;;;3.37;;
3083;SDS011;1552;51.952;7.618;2024-01-15T09:11:37;6.37;;;2.90;;
3083;SDS011;1552;51.952;7.618;2024-01-15T09:14:05;7.83;;;3.50;;
3083;SDS011;1552;51.952;7.618;2024-01-15T09:16:31;6.90;;;3.90;;
3083;SDS011;1552;51.952;7.618;2024-01-15T09:18:57;4.57;;;2.93;;
3083;SDS011;1552;51.952;7.618;2024-01-15T09:21:24;7.27;;;3.20;;
3083;SDS011;1552;51.952;7.618;2024-01-15T09:23:51;6.47;;;3.23;;
3083;SDS011;1552;51.952;7.618;2024-01-15T09:26:17;8.57;;;2.90;;
3083;SDS011;1552;51.952;7.618;2024-01-15T09:28:43;5.97;;;3.47;;
3083;SDS011;1552;51.952;7.618;2024-01-15T09:31:11;4.77;;;3.00;;
3083;SDS011;1552;51.952;7.618;2024-01-15T09:33:37;9.67;;;4.17;;
3083;SDS011;1552;51.952;7.618;2024-01-15T09:36:04;6.70;;;3.37;;
3083;SDS011;1552;51.952;7.618;2024-01-15T09:38:30;4.83;;;3.10;;
3083;SDS011;1552;51.952;7.618;2024-01-15T09:40:57;8.90;;;3.60;;
3083;SDS011;1552;51.952;7.618;2024-01-15T09:43:23;6.10;;;3.73;;
3083;SDS011;1552;51.952;7.618;2024-01-15T09:45:50;4.20;;;3.00;;
3083;SDS011;1552;51.952;7.618;2024-01-15T09:48:18;9.50;;;3.53;;
3083;SDS011;1552;51.952;7.618;2024-01-15T09:50:45;5.13;;;3.03;;
3083;SDS011;1552;51.952;7.618;2024-01-15T09:53:11;5.00;;;3.53;;
3083;SDS011;1552;51.952;7.618;2024-01-15T09:55:38;5.60;;;3.57;;
3083;SDS011;1552;51.952;7.618;2024-01-15T09:58:04;4.23;;;2.83;;
3083;SDS011;1552;51.952;7.618;2024-01-15T10:00:31;5.47;;;3.23;;
3083;SDS011;1552;51.952;7.618;2024-01-15T10:03:01;7.33;;;2.67;;
3083;SDS011;1552;51.952;7.618;2024-01-15T10:05:30;5.90;;;2.80;;
3083;SDS011;1552;51.952;7.618;2024-01-15T10:07:57;3.57;;;3.00;;
3083;SDS011;1552;51.952;7.618;2024-01-15T10:10:25;6.20;;;3.33;;
3083;SDS011;1552;51.952;7.618;2024-01-15T10:12:51;7.60;;;3.10;;
3083;SDS011;1552;51.952;7.618;2024-01-15T10:15:21;6.43;;;3.13;;
3083;SDS011;1552;51.952;7.618;2024-01-15T10:17:48;4.47;;;3.33;;
3083;SDS011;1552;51.952;7.618;2024-01-15T10:20:14;6.20;;;3.73;;
3083;SDS011;1552;51.952;7.618;2024-01-15T10:22:42;4.60;;;3.20;;
3083;SDS011;1552;51.952;7.618;2024-01-15T10:25:12;5.37;;;3.00;;
3083;SDS011;1552;51.952;7.618;2024-01-15T10:27:38;4.80;;;3.27;;
3083;SDS011;1552;51.952;7.618;2024-01-15T10:30:05;5.93;;;3.13;;
3083;SDS011;1552;51.952;7.618;2024-01-15T10:32:32;5.60;;;3.23;;
3083;SDS011;1552;51.952;7.618;2024-01-15T10:34:58;6.23;;;3.10;;
3083;SDS011;1552;51.952;7.618;2024-01-15T10:37:24;7.73;;;3.10;;
3083;SDS011;1552;51.952;7.618;2024-01-15T10:39:53;5.03;;;3.17;;
3083;SDS011;1552;51.952;7.618;2024-01-15T10:42:19;6.33;;;2.80;;
3083;SDS011;1552;51.952;7.618;2024-01-15T10:44:46;7.70;;;3.10;;
3083;SDS011;1552;51.952;7.618;2024-01-15T10:47:12;3.50;;;2.77;;
3083;SDS011;1552;51.952;7.618;2024-01-15T10:49:39;5.67;;;2.97;;
3083;SDS011;1552;51.952;7.618;2024-01-15T10:52:06;3.73;;;2.60;;
3083;SDS011;1552;51.952;7.618;2024-01-15T10:54:32;3.77;;;2.53;;
3083;SDS011;1552;51.952;7.618;2024-01-15T10:57:01;2.90;;;2.07;;
3083;SDS011;1552;51.952;7.618;2024-01-15T10:59:28;4.57;;;2.87;;
3083;SDS011;1552;51.952;7.618;2024-01-15T11:01:54;3.73;;;2.33;;
3083;SDS011;1552;51.952;7.618;2024-01-15T11:04:21;4.83;;;2.23;;
3083;SDS011;1552;51.952;7.618;2024-01-15T11:06:49;5.47;;;2.17;;
3083;SDS011;1552;51.952;7.618;2024-01-15T11:09:16;5.23;;;2.53;;
3083;SDS011;1552;51.952;7.618;2024-01-15T11:11:43;2.73;;;1.80;;
3083;SDS011;1552;51.952;7.618;2024-01-15T11:14:11;7.30;;;2.83;;
3083;SDS011;1552;51.952;7.618;2024-01-15T11:19:24;6.90;;;2.30;;
3083;SDS011;1552;51.952;7.618;2024-01-15T11:21:51;8.47;;;2.47;;
3083;SDS011;1552;51.952;7.618;2024-01-15T11:24:36;14.40;;;2.63;;
3083;SDS011;1552;51.952;7.618;2024-01-15T11:27:02;4.60;;;1.97;;
3083;SDS011;1552;51.952;7.618;2024-01-15T11:29:30;3.43;;;2.07;;
3083;SDS011;1552;51.952;7.618;2024-01-15T11:31:58;5.20;;;2.33;;
3083;SDS011;1552;51.952;7.618;2024-01-15T11:37:06;2.00;;;1.50;;
3083;SDS011;1552;51.952;7.618;2024-01-15T11:39:41;2.53;;;1.73;;
3083;SDS011;1552;51.952;7.618;2024-01-15T11:42:11;6.53;;;2.13;;
3083;SDS011;1552;51.952;7.618;2024-01-15T11:44:39;3.90;;;1.80;;
3083;SDS011;1552;51.952;7.618;2024-01-15T11:47:06;3.67;;;1.67;;
3083;SDS011;1552;51.952;7.618;2024-01-15T11:49:41;2.30;;;1.63;;
3083;SDS011;1552;51.952;7.618;2024-01-15T11:52:11;4.37;;;1.73;;
3083;SDS011;1552;51.952;7.618;2024-01-15T11:54:39;6.50;;;1.97;;
3083;SDS011;1552;51.952;7.618;2024-01-15T11:57:07;4.20;;;2.17;;
3083;SDS011;1552;51.952;7.618;2024-01-15T11:59:35;2.60;;;1.57;;
3083;SDS011;1552;51.952;7.618;2024-01-15T12:02:03;2.97;;;1.70;;
3083;SDS011;1552;51.952;7.618;2024-01-15T12:04:29;4.33;;;1.60;;
3083;SDS011;1552;51.952;7.618;2024-01-15T12:06:56;5.40;;;1.97;;
3083;SDS011;1552;51.952;7.618;2024-01-15T12:09:22;4.90;;;1.80;;
3083;SDS011;1552;51.952;7.618;2024-01-15T12:11:50;2.20;;;1.90;;
3083;SDS011;1552;51.952;7.618;2024-01-15T12:14:20;4.80;;;1.70;;
3083;SDS011;1552;51.952;7.618;2024-01-15T12:16:46;7.97;;;2.00;;
3083;SDS011;1552;51.952;7.618;2024-01-15T12:19:14;5.70;;;2.77;;
3083;SDS011;1552;51.952;7.618;2024-01-15T12:21:41;9.63;;;2.17;;
3083;SDS011;1552;51.952;7.618;2024-01-15T12:24:07;3.93;;;1.97;;
3083;SDS011;1552;51.952;7.618;2024-01-15T12:26:34;3.80;;;2.10;;
3083;SDS011;1552;51.952;7.618;2024-01-15T12:29:00;3.40;;;1.80;;
3083;SDS011;1552;51.952;7.618;2024-01-15T12:31:27;6.97;;;2.00;;
3083;SDS011;1552;51.952;7.618;2024-01-15T12:33:53;3.10;;;2.03;;
3083;SDS011;1552;51.952;7.618;2024-01-15T12:36:21;4.03;;;1.90;;
3083;SDS011;1552;51.952;7.618;2024-01-15T12:38:48;3.43;;;1.83;;
3083;SDS011;1552;51.952;7.618;2024-01-15T12:41:14;2.67;;;1.77;;
3083;SDS011;1552;51.952;7.618;2024-01-15T12:43:40;6.67;;;2.23;;
3083;SDS011;1552;51.952;7.618;2024-01-15T12:46:07;3.53;;;2.00;;
3083;SDS011;1552;51.952;7.618;2024-01-15T12:48:33;2.43;;;2.23;;
3083;SDS011;1552;51.952;7.618;2024-01-15T12:51:00;4.13;;;2.33;;
3083;SDS011;1552;51.952;7.618;2024-01-15T12:53:28;5.93;;;1.93;;
3083;SDS011;1552;51.952;7.618;2024-01-15T12:55:54;5.40;;;2.00;;
3083;SDS011;1552;51.952;7.618;2024-01-15T12:58:20;3.50;;;1.53;;
3083;SDS011;1552;51.952;7.618;2024-01-15T13:00:46;3.53;;;2.00;;
3083;SDS011;1552;51.952;7.618;2024-01-15T13:03:13;5.23;;;1.70;;
3083;SDS011;1552;51.952;7.618;2024-01-15T13:05:39;2.17;;;1.50;;
3083;SDS011;1552;51.952;7.618;2024-01-15T13:08:06;4.80;;;1.50;;
3083;SDS011;1552;51.952;7.618;2024-01-15T13:10:34;1.90;;;1.50;;
3083;SDS011;1552;51.952;7.618;2024-01-15T13:13:00;8.03;;;1.67;;
3083;SDS011;1552;51.952;7.618;2024-01-15T13:15:27;2.97;;;1.40;;
3083;SDS011;1552;51.952;7.618;2024-01-15T13:17:53;5.17;;;1.60;;
3083;SDS011;1552;51.952;7.618;2024-01-15T13:20:19;3.70;;;1.40;;
3083;SDS011;1552;51.952;7.618;2024-01-15T13:22:47;2.50;;;1.77;;
3083;SDS011;1552;51.952;7.618;2024-01-15T13:25:13;5.27;;;1.53;;
3083;SDS011;1552;51.952;7.618;2024-01-15T13:27:42;2.77;;;1.90;;
3083;SDS011;1552;51.952;7.618;2024-01-15T13:30:10;3.20;;;1.63;;
3083;SDS011;1552;51.952;7.618;2024-01-15T13:32:37;2.70;;;1.43;;
3083;SDS011;1552;51.952;7.618;2024-01-15T13:35:03;2.80;;;1.50;;
3083;SDS011;1552;51.952;7.618;2024-01-15T13:37:32;3.53;;;1.30;;
3083;SDS011;1552;51.952;7.618;2024-01-15T13:39:59;4.70;;;1.00;;
3083;SDS011;1552;51.952;7.618;2024-01-15T13:42:25;4.13;;;1.60;;
3083;SDS011;1552;51.952;7.618;2024-01-15T13:44:53;5.50;;;1.40;;
3083;SDS011;1552;51.952;7.618;2024-01-15T13:47:19;2.37;;;1.33;;
3083;SDS011;1552;51.952;7.618;2024-01-15T13:49:46;3.97;;;1.60;;
3083;SDS011;1552;51.952;7.618;2024-01-15T13:52:12;1.27;;;1.00;;
3083;SDS011;1552;51.952;7.618;2024-01-15T13:54:38;5.37;;;1.53;;
3083;SDS011;1552;51.952;7.618;2024-01-15T13:57:05;5.10;;;1.40;;
3083;SDS011;1552;51.952;7.618;2024-01-15T13:59:32;3.03;;;1.43;;
3083;SDS011;1552;51.952;7.618;2024-01-15T14:01:59;4.37;;;1.47;;
3083;SDS011;1552;51.952;7.618;2024-01-15T14:04:26;3.20;;;1.30;;
3083;SDS011;1552;51.952;7.618;2024-01-15T14:06:52;5.13;;;1.20;;
3083;SDS011;1552;51.952;7.618;2024-01-15T14:09:19;1.70;;;0.90;;
3083;SDS011;1552;51.952;7.618;2024-01-15T14:11:46;2.43;;;1.10;;
3083;SDS011;1552;51.952;7.618;2024-01-15T14:14:13;2.27;;;1.23;;
3083;SDS011;1552;51.952;7.618;2024-01-15T14:16:40;7.57;;;1.23;;
3083;SDS011;1552;51.952;7.618;2024-01-15T14:19:07;4.07;;;1.17;;
3083;SDS011;1552;51.952;7.618;2024-01-15T14:21:34;2.90;;;0.97;;
3083;SDS011;1552;51.952;7.618;2024-01-15T14:24:00;3.40;;;1.63;;
3083;SDS011;1552;51.952;7.618;2024-01-15T14:26:27;3.23;;;0.90;;
3083;SDS011;1552;51.952;7.618;2024-01-15T14:28:53;1.47;;;1.37;;
3083;SDS011;1552;51.952;7.618;2024-01-15T14:31:20;1.30;;;0.73;;
3083;SDS011;1552;51.952;7.618;2024-01-15T14:33:46;3.20;;;0.97;;
3083;SDS011;1552;51.952;7.618;2024-01-15T14:36:14;2.97;;;1.30;;
3083;SDS011;1552;51.952;7.618;2024-01-15T14:38:40;2.03;;;1.00;;
3083;SDS011;1552;51.952;7.618;2024-01-15T14:41:07;1.23;;;0.97;;
3083;SDS011;1552;51.952;7.618;2024-01-15T14:43:33;3.47;;;1.30;;
3083;SDS011;1552;51.952;7.618;2024-01-15T14:45:59;2.17;;;1.27;;
3083;SDS011;1552;51.952;7.618;2024-01-15T14:48:25;1.97;;;1.07;;
3083;SDS011;1552;51.952;7.618;2024-01-15T14:50:52;1.60;;;1.00;;
3083;SDS011;1552;51.952;7.618;2024-01-15T14:53:19;3.33;;;1.40;;
3083;SDS011;1552;51.952;7.618;2024-01-15T14:55:46;1.17;;;1.03;;
3083;SDS011;1552;51.952;7.618;2024-01-15T14:58:13;6.37;;;1.60;;
3083;SDS011;1552;51.952;7.618;2024-01-15T15:00:40;5.60;;;1.13;;
3083;SDS011;1552;51.952;7.618;2024-01-15T15:03:06;2.87;;;1.60;;
3083;SDS011;1552;51.952;7.618;2024-01-15T15:05:32;1.80;;;1.10;;
3083;SDS011;1552;51.952;7.618;2024-01-15T15:07:59;3.80;;;1.43;;
3083;SDS011;1552;51.952;7.618;2024-01-15T15:10:26;4.90;;;1.50;;
3083;SDS011;1552;51.952;7.618;2024-01-15T15:12:53;3.20;;;1.23;;